Time;durP1;ratioP1;P1;durP2;ratioP2;P2;SDS_P1;SDS_P2;PMS_P1;PMS_P2;Temp;Humidity;BMP_temperature;BMP_pressure;BME280_temperature;BME280_humidity;BME280_pressure;Samples;Min_cycle;Max_cycle;Signal;HPM_P1;HPM_P2
2021/07/05 00:01:53;;;;;;;5.28;3.20;;;18.60;99.90;;;;;;3633109;39;20232;-82
2021/07/05 00:04:21;;;;;;;3.65;2.88;;;18.30;99.90;;;;;;3624922;39;20220;-82
2021/07/05 00:06:48;;;;;;;7.25;3.53;;;18.00;99.90;;;;;;3632471;39;20293;-83
2021/07/05 00:11:56;;;;;;;3.63;3.13;;;18.10;99.90;;;;;;3622946;39;20225;-82
2021/07/05 00:20:02;;;;;;;3.10;2.85;;;17.70;99.90;;;;;;3666228;22;20259;-83
2021/07/05 00:25:04;;;;;;;4.75;3.70;;;17.70;99.90;;;;;;3630027;39;20248;-82
2021/07/05 00:36:24;;;;;;;4.18;3.85;;;17.70;99.90;;;;;;1220368;22;21748;-83
2021/07/05 00:44:07;;;;;;;5.82;3.78;;;18.00;99.90;;;;;;3612440;39;20226;-83
2021/07/05 00:46:34;;;;;;;4.53;4.05;;;18.00;99.90;;;;;;3612724;39;20904;-82
2021/07/05 01:24:06;;;;;;;13.70;9.30;;;17.10;99.90;;;;;;3622555;39;20278;-82
2021/07/05 01:29:33;;;;;;;14.63;9.35;;;17.20;99.90;;;;;;3712272;22;21113;-82
2021/07/05 01:32:01;;;;;;;9.20;8.18;;;17.30;99.90;;;;;;3589765;40;20217;-83
2021/07/05 01:34:28;;;;;;;11.40;8.32;;;17.10;99.90;;;;;;3593769;40;20945;-81
2021/07/05 01:50:38;;;;;;;12.77;11.48;;;17.10;99.90;;;;;;3632191;39;20224;-83
2021/07/05 02:09:28;;;;;;;12.15;7.85;;;16.90;99.90;;;;;;3710360;22;21168;31
2021/07/05 02:49:57;;;;;;;5.97;3.75;;;16.70;99.90;;;;;;3612239;39;20230;-82
2021/07/05 02:52:32;;;;;;;4.80;3.72;;;16.90;99.90;;;;;;3687770;22;20233;-84
2021/07/05 02:55:00;;;;;;;5.10;4.28;;;17.00;99.90;;;;;;3604611;39;21233;-83
2021/07/05 03:03:01;;;;;;;7.68;3.42;;;17.00;99.90;;;;;;3638949;39;20223;-81
2021/07/05 03:05:54;;;;;;;6.18;4.55;;;16.90;99.90;;;;;;3678053;22;20236;-82
2021/07/05 03:10:58;;;;;;;7.28;4.00;;;16.80;99.90;;;;;;3703761;22;20227;-83
2021/07/05 03:38:36;;;;;;;5.22;4.35;;;16.20;99.90;;;;;;3633374;39;20241;-81
2021/07/05 05:07:16;;;;;;;8.95;3.58;;;16.90;99.90;;;;;;3612286;40;20237;-83
2021/07/05 05:23:40;;;;;;;5.95;3.05;;;16.70;99.90;;;;;;3603491;40;20214;-84
2021/07/05 05:37:29;;;;;;;10.32;3.30;;;16.70;99.90;;;;;;1441355;22;21718;-80
2021/07/05 05:48:03;;;;;;;8.13;3.97;;;16.60;99.90;;;;;;3637946;22;20250;-81
2021/07/05 05:50:30;;;;;;;4.30;3.25;;;17.00;99.90;;;;;;3589434;39;20312;-79
2021/07/05 05:52:57;;;;;;;3.67;3.17;;;17.00;99.90;;;;;;3588267;40;20231;-80
2021/07/05 05:55:24;;;;;;;5.05;3.33;;;16.80;99.90;;;;;;3588847;40;20251;-80
2021/07/05 05:57:51;;;;;;;3.47;3.15;;;16.80;99.90;;;;;;3581692;40;20235;-79
2021/07/05 06:00:25;;;;;;;3.95;2.65;;;16.80;99.90;;;;;;3582037;40;20231;-80
2021/07/05 06:02:54;;;;;;;4.25;3.85;;;16.80;99.90;;;;;;3589174;40;20249;-37
2021/07/05 06:05:23;;;;;;;5.78;3.80;;;17.10;99.90;;;;;;3596378;39;20241;-40
2021/07/05 06:07:50;;;;;;;6.55;3.17;;;17.30;99.90;;;;;;3586982;40;20327;-37
2021/07/05 06:10:19;;;;;;;7.35;3.55;;;17.20;99.90;;;;;;3579727;40;20231;-37
2021/07/05 06:12:47;;;;;;;3.70;3.40;;;17.10;99.90;;;;;;3577503;40;20231;-37
2021/07/05 06:15:15;;;;;;;7.78;3.28;;;17.40;99.90;;;;;;3582063;40;20271;-37
2021/07/05 06:17:43;;;;;;;4.75;2.97;;;17.50;99.90;;;;;;3587730;40;20230;-39
2021/07/05 06:20:11;;;;;;;3.15;2.85;;;17.60;99.90;;;;;;3587662;40;20242;-38
2021/07/05 06:22:42;;;;;;;5.15;2.53;;;17.80;99.90;;;;;;3587657;40;20234;-37
2021/07/05 06:25:11;;;;;;;3.72;2.40;;;17.80;99.90;;;;;;3587450;40;20254;-39
2021/07/05 06:27:38;;;;;;;4.55;3.15;;;17.90;99.90;;;;;;3584381;40;20239;-37
2021/07/05 06:30:07;;;;;;;4.47;2.70;;;17.70;99.90;;;;;;3577679;40;20235;-40
2021/07/05 06:32:34;;;;;;;3.15;2.88;;;17.90;99.90;;;;;;3576869;40;20297;-38
2021/07/05 06:35:01;;;;;;;3.65;3.35;;;18.10;99.90;;;;;;3584292;40;20238;-39
2021/07/05 06:37:28;;;;;;;7.03;2.58;;;18.30;99.90;;;;;;3587515;40;20282;-39
2021/07/05 06:39:56;;;;;;;5.32;2.78;;;18.30;99.90;;;;;;3587866;40;20702;-40
2021/07/05 06:42:23;;;;;;;6.00;3.20;;;18.20;99.90;;;;;;3587353;40;20311;-39
2021/07/05 06:44:50;;;;;;;5.20;2.90;;;18.40;99.90;;;;;;3587356;40;20246;-38
2021/07/05 06:47:18;;;;;;;4.13;2.78;;;18.70;99.90;;;;;;3577182;40;20614;-39
2021/07/05 06:49:45;;;;;;;4.05;2.55;;;18.60;99.90;;;;;;3577697;40;20271;-38
2021/07/05 06:52:12;;;;;;;2.28;2.17;;;18.40;99.90;;;;;;3579693;40;20243;-40
2021/07/05 06:54:40;;;;;;;2.70;2.50;;;18.40;99.90;;;;;;3584293;40;20235;-39
2021/07/05 06:57:28;;;;;;;4.70;2.08;;;18.90;99.90;;;;;;3580743;40;20250;-40
2021/07/05 06:59:56;;;;;;;2.78;2.47;;;19.00;99.90;;;;;;3581279;40;20266;-38
2021/07/05 07:02:23;;;;;;;2.58;2.38;;;19.30;99.90;;;;;;3578902;40;20227;-38
2021/07/05 07:04:51;;;;;;;2.25;2.03;;;19.20;99.90;;;;;;3578454;40;20231;-39
2021/07/05 07:07:18;;;;;;;1.65;1.55;;;19.20;99.90;;;;;;3578993;40;20290;-39
2021/07/05 07:09:45;;;;;;;2.70;2.50;;;19.40;99.90;;;;;;3577807;40;20243;-38
2021/07/05 07:12:13;;;;;;;4.38;2.10;;;19.40;99.90;;;;;;3578920;40;20642;-39
2021/07/05 07:14:40;;;;;;;13.43;3.38;;;19.60;99.90;;;;;;3579017;40;20325;-39
2021/07/05 07:17:09;;;;;;;1.95;1.85;;;19.80;99.90;;;;;;3579255;40;20247;-39
2021/07/05 07:19:36;;;;;;;5.70;2.60;;;19.80;99.90;;;;;;3588660;40;20235;-39
2021/07/05 07:22:04;;;;;;;3.53;2.20;;;20.00;99.90;;;;;;3581129;40;20235;-40
2021/07/05 07:24:32;;;;;;;2.10;1.85;;;20.20;99.90;;;;;;3579023;40;20254;-42
2021/07/05 07:27:00;;;;;;;3.80;1.50;;;20.20;99.90;;;;;;3579814;40;20258;-41
2021/07/05 07:29:28;;;;;;;4.75;2.03;;;20.40;99.90;;;;;;3585634;40;20577;-40
2021/07/05 07:31:57;;;;;;;2.00;1.90;;;20.60;99.90;;;;;;3592641;39;20300;-40
2021/07/05 07:34:26;;;;;;;2.72;1.55;;;20.30;99.90;;;;;;3587850;40;20291;-40
2021/07/05 07:36:55;;;;;;;2.08;1.98;;;20.20;99.90;;;;;;3588557;40;20231;-39
2021/07/05 07:39:27;;;;;;;1.63;1.52;;;20.00;99.90;;;;;;3589560;40;20567;-40
2021/07/05 07:41:54;;;;;;;6.65;1.95;;;20.20;99.90;;;;;;3588206;40;20253;-42
2021/07/05 07:44:21;;;;;;;2.28;1.73;;;20.50;99.90;;;;;;3588610;40;20238;-42
2021/07/05 07:46:50;;;;;;;2.22;1.45;;;20.90;99.90;;;;;;3589302;40;20586;-39
2021/07/05 07:49:17;;;;;;;4.00;1.45;;;21.00;99.90;;;;;;3588580;40;20323;-39
2021/07/05 07:51:44;;;;;;;1.50;1.40;;;20.80;99.90;;;;;;3588649;40;20632;-41
2021/07/05 07:54:11;;;;;;;1.75;1.65;;;20.50;99.90;;;;;;3588663;40;20246;-38
2021/07/05 07:56:38;;;;;;;1.70;1.60;;;20.50;99.90;;;;;;3588619;40;20613;-41
2021/07/05 07:59:05;;;;;;;2.88;1.60;;;20.40;99.90;;;;;;3587423;40;20597;-40
2021/07/05 08:01:32;;;;;;;2.13;1.58;;;20.40;99.90;;;;;;3587746;40;20257;-41
2021/07/05 08:04:00;;;;;;;3.30;1.60;;;20.40;99.90;;;;;;3588995;40;20577;-38
2021/07/05 08:06:27;;;;;;;1.88;1.48;;;20.30;99.90;;;;;;3586001;40;20257;-39
2021/07/05 08:08:55;;;;;;;1.60;1.48;;;20.10;99.90;;;;;;3592348;39;20579;-39
2021/07/05 08:11:23;;;;;;;1.45;1.35;;;19.90;99.90;;;;;;3597262;39;20712;-40
2021/07/05 08:13:50;;;;;;;6.28;2.22;;;19.90;99.90;;;;;;3598696;40;20361;-38
2021/07/05 08:16:18;;;;;;;1.83;1.73;;;19.90;99.90;;;;;;3598657;40;20229;-38
2021/07/05 08:18:45;;;;;;;3.65;1.55;;;19.70;99.90;;;;;;3598853;39;20246;-40
2021/07/05 08:21:15;;;;;;;2.67;1.75;;;19.70;99.90;;;;;;3596818;39;20242;-38
2021/07/05 08:23:42;;;;;;;1.63;1.42;;;19.80;99.90;;;;;;3588725;39;20234;-38
2021/07/05 08:26:09;;;;;;;2.00;1.77;;;20.00;99.90;;;;;;3588008;40;20519;-39
2021/07/05 08:28:36;;;;;;;1.88;1.70;;;20.00;99.90;;;;;;3584475;40;20245;-40
2021/07/05 08:31:07;;;;;;;2.83;1.70;;;20.00;99.90;;;;;;3582723;40;20808;-40
2021/07/05 08:33:34;;;;;;;1.67;1.58;;;20.30;99.90;;;;;;3587885;40;20247;-38
2021/07/05 08:36:02;;;;;;;2.60;2.40;;;20.50;99.90;;;;;;3583769;40;20492;-38
2021/07/05 08:38:31;;;;;;;2.50;2.22;;;20.30;99.90;;;;;;3578451;40;20231;-38
2021/07/05 08:41:01;;;;;;;2.80;2.60;;;20.20;99.90;;;;;;3582424;40;20246;-38
2021/07/05 08:43:30;;;;;;;3.95;3.00;;;20.20;99.90;;;;;;3588387;40;20690;-40
2021/07/05 08:46:01;;;;;;;3.70;2.85;;;19.90;99.90;;;;;;3587894;40;20319;-39
2021/07/05 08:48:29;;;;;;;11.93;3.08;;;19.90;99.90;;;;;;3588683;40;20234;-38
2021/07/05 08:50:57;;;;;;;3.60;2.50;;;20.00;99.90;;;;;;3588268;40;20286;-38
2021/07/05 08:53:24;;;;;;;5.80;2.47;;;20.10;99.90;;;;;;3588669;40;20550;-38
2021/07/05 08:55:52;;;;;;;3.35;2.38;;;20.10;99.90;;;;;;3588739;40;20246;-37
2021/07/05 08:58:19;;;;;;;2.45;2.30;;;19.90;99.90;;;;;;3588745;40;20239;-40
2021/07/05 09:00:47;;;;;;;5.40;2.47;;;19.90;99.90;;;;;;3588602;40;20250;-38
2021/07/05 09:03:14;;;;;;;2.45;2.35;;;20.10;99.90;;;;;;3588154;40;20584;-38
2021/07/05 09:05:41;;;;;;;2.72;2.35;;;20.00;99.90;;;;;;3588148;40;20699;-38
2021/07/05 09:08:10;;;;;;;2.65;2.45;;;19.70;99.90;;;;;;3587006;40;20233;-38
2021/07/05 09:10:46;;;;;;;2.97;2.20;;;19.70;99.90;;;;;;3588721;40;20242;-38
2021/07/05 09:13:17;;;;;;;2.08;1.98;;;19.70;99.90;;;;;;3587969;40;20284;-38
2021/07/05 09:15:46;;;;;;;2.38;2.17;;;19.80;99.90;;;;;;3587802;40;20479;-38
2021/07/05 09:18:35;;;;;;;3.85;2.03;;;19.70;99.90;;;;;;3588186;40;20234;-38
2021/07/05 09:21:20;;;;;;;4.35;2.83;;;19.90;99.90;;;;;;3587686;40;20242;-39
2021/07/05 09:24:00;;;;;;;1.95;1.85;;;19.80;99.90;;;;;;3588568;40;20242;-38
2021/07/05 09:26:31;;;;;;;2.10;2.00;;;19.80;99.90;;;;;;3588243;40;20253;-38
2021/07/05 09:29:00;;;;;;;2.55;2.28;;;19.90;99.90;;;;;;3589359;40;20246;-40
2021/07/05 09:31:42;;;;;;;5.72;1.88;;;19.90;99.90;;;;;;3590294;40;20331;-38
2021/07/05 09:34:19;;;;;;;1.95;1.85;;;19.80;99.90;;;;;;3590659;40;20242;-38
2021/07/05 09:36:47;;;;;;;2.38;1.75;;;19.80;99.90;;;;;;3589743;40;20598;-39
2021/07/05 09:39:17;;;;;;;2.30;2.03;;;19.70;99.90;;;;;;3591348;40;20246;-41
2021/07/05 09:41:45;;;;;;;2.47;1.92;;;19.70;99.90;;;;;;3591823;40;20253;-39
2021/07/05 09:44:16;;;;;;;3.17;2.03;;;19.70;99.90;;;;;;3585584;40;20515;-40
2021/07/05 09:46:46;;;;;;;2.97;1.63;;;19.70;99.90;;;;;;3585071;40;20312;-39
2021/07/05 09:49:23;;;;;;;6.15;2.63;;;19.70;99.90;;;;;;3590236;39;20613;-39
2021/07/05 09:52:07;;;;;;;1.85;1.70;;;19.60;99.90;;;;;;3590282;40;20595;-38
2021/07/05 09:54:35;;;;;;;2.95;2.55;;;19.60;99.90;;;;;;3590563;40;20335;-38
2021/07/05 09:57:05;;;;;;;4.18;3.05;;;19.40;99.90;;;;;;3590462;40;20489;-38
2021/07/05 09:59:42;;;;;;;3.28;2.58;;;19.20;99.90;;;;;;3590411;40;20233;-38
2021/07/05 10:02:11;;;;;;;4.72;1.95;;;19.00;99.90;;;;;;3589358;40;20525;-37
2021/07/05 10:04:43;;;;;;;4.30;3.25;;;19.10;99.90;;;;;;3588851;40;20270;-37
2021/07/05 10:07:11;;;;;;;5.43;2.45;;;18.80;99.90;;;;;;3588209;40;20323;-38
2021/07/05 10:09:43;;;;;;;6.40;2.38;;;18.40;99.90;;;;;;3587564;40;20234;-38
2021/07/05 10:12:26;;;;;;;3.33;2.97;;;18.00;99.90;;;;;;3587703;40;20246;-39
2021/07/05 10:14:57;;;;;;;4.63;2.60;;;17.90;99.90;;;;;;3587389;40;20263;-38
2021/07/05 10:17:25;;;;;;;4.03;2.50;;;17.90;99.90;;;;;;3587345;40;20624;-42
2021/07/05 10:19:52;;;;;;;5.57;2.83;;;17.70;99.90;;;;;;3586921;40;20238;-38
2021/07/05 10:22:20;;;;;;;2.65;2.20;;;17.70;99.90;;;;;;3587401;40;20241;-40
2021/07/05 10:24:48;;;;;;;5.35;2.20;;;17.90;99.90;;;;;;3580810;40;20232;-40
2021/07/05 10:27:15;;;;;;;5.75;2.30;;;17.90;99.90;;;;;;3577503;40;20242;-39
2021/07/05 10:29:45;;;;;;;2.03;1.92;;;17.90;99.90;;;;;;3584504;40;20592;-38
2021/07/05 10:32:13;;;;;;;2.40;2.20;;;17.90;99.90;;;;;;3585768;40;20542;-39
2021/07/05 10:34:41;;;;;;;2.38;2.05;;;18.00;99.90;;;;;;3587772;40;20242;-38
2021/07/05 10:37:14;;;;;;;2.97;1.75;;;18.00;99.90;;;;;;3591806;40;20694;-38
2021/07/05 10:39:42;;;;;;;2.22;2.03;;;18.10;99.90;;;;;;3590495;40;20588;-38
2021/07/05 10:42:35;;;;;;;12.35;2.00;;;18.20;99.90;;;;;;3581563;40;20246;-38
2021/07/05 10:45:07;;;;;;;2.22;2.08;;;18.40;99.90;;;;;;3582094;40;20288;-40
2021/07/05 10:47:59;;;;;;;2.53;1.90;;;18.40;99.90;;;;;;3590681;40;20311;-37
2021/07/05 10:50:46;;;;;;;3.03;2.58;;;18.40;99.90;;;;;;3581054;40;20665;-40
2021/07/05 10:53:15;;;;;;;5.35;2.22;;;18.60;99.90;;;;;;3593248;40;20246;-39
2021/07/05 10:55:44;;;;;;;3.85;2.10;;;18.60;99.90;;;;;;3590178;40;20254;-38
2021/07/05 10:58:17;;;;;;;3.25;2.63;;;18.40;99.90;;;;;;3589408;40;20613;-38
2021/07/05 11:00:46;;;;;;;2.47;2.22;;;18.40;99.90;;;;;;3588651;40;20292;-39
2021/07/05 11:07:16;;;;;;;1.60;1.20;;;18.40;99.90;;;;;;3583046;40;20365;-40
2021/07/05 11:09:51;;;;;;;1.60;1.48;;;18.10;99.90;;;;;;3577367;40;20246;-40
2021/07/05 11:12:28;;;;;;;1.40;1.23;;;18.30;99.90;;;;;;3578370;40;20606;-38
2021/07/05 11:14:55;;;;;;;3.92;1.35;;;18.30;99.90;;;;;;3583566;40;20613;-38
2021/07/05 11:17:25;;;;;;;2.35;1.20;;;18.30;99.90;;;;;;3589553;40;20230;-38
2021/07/05 11:19:55;;;;;;;1.15;1.05;;;18.50;99.90;;;;;;3582290;40;20266;-38
2021/07/05 11:22:29;;;;;;;1.50;1.27;;;18.70;99.90;;;;;;3578458;40;20243;-38
2021/07/05 11:24:59;;;;;;;1.38;1.27;;;19.00;99.90;;;;;;3578933;40;20320;-38
2021/07/05 11:27:52;;;;;;;1.50;1.40;;;19.30;99.90;;;;;;3579049;40;20625;-38
2021/07/05 11:30:38;;;;;;;1.25;1.15;;;19.40;99.90;;;;;;3578766;40;20231;-40
2021/07/05 11:33:24;;;;;;;1.55;0.88;;;20.10;99.90;;;;;;3576288;40;20261;-40
2021/07/05 11:35:55;;;;;;;1.08;1.08;;;20.50;99.90;;;;;;3578996;40;20251;-38
2021/07/05 11:38:34;;;;;;;0.70;0.70;;;20.40;99.90;;;;;;3578938;40;20242;-39
2021/07/05 11:41:05;;;;;;;0.63;0.63;;;20.40;99.90;;;;;;3578724;40;20250;-41
2021/07/05 11:43:48;;;;;;;0.93;0.93;;;20.40;99.90;;;;;;3591085;39;20523;-38
2021/07/05 11:46:34;;;;;;;0.47;0.47;;;20.30;99.90;;;;;;3597487;39;20272;-37
2021/07/05 11:49:06;;;;;;;0.82;0.60;;;20.50;99.90;;;;;;3597246;39;20256;-38
2021/07/05 11:51:36;;;;;;;0.60;0.60;;;20.80;99.90;;;;;;3598625;40;20254;-38
2021/07/05 11:54:06;;;;;;;1.45;0.60;;;21.00;99.90;;;;;;3580683;40;20243;-38
2021/07/05 11:56:39;;;;;;;0.57;0.40;;;21.40;99.90;;;;;;3579411;40;20324;-38
2021/07/05 11:59:08;;;;;;;0.55;0.52;;;21.30;99.90;;;;;;3578492;40;20239;-38
2021/07/05 12:01:37;;;;;;;2.08;0.63;;;20.90;99.90;;;;;;3579036;40;20227;-38
2021/07/05 12:04:06;;;;;;;0.50;0.50;;;21.00;99.90;;;;;;3581928;40;20235;-37
2021/07/05 12:06:34;;;;;;;0.50;0.50;;;20.90;99.90;;;;;;3586968;40;20234;-38
2021/07/05 12:09:05;;;;;;;1.30;1.20;;;21.50;99.90;;;;;;3587813;40;20234;-39
2021/07/05 12:11:34;;;;;;;0.43;0.43;;;22.20;99.90;;;;;;3578168;40;20242;-38
2021/07/05 12:14:14;;;;;;;3.42;0.38;;;22.60;99.90;;;;;;3584902;40;20241;-38
2021/07/05 12:16:44;;;;;;;0.55;0.43;;;22.10;99.90;;;;;;3588387;40;20319;-38
2021/07/05 12:19:13;;;;;;;1.20;0.63;;;22.20;99.90;;;;;;3586065;40;20238;-40
2021/07/05 12:21:43;;;;;;;1.92;0.70;;;22.70;99.90;;;;;;3588885;40;20705;-38
2021/07/05 12:24:20;;;;;;;0.80;0.55;;;22.40;99.90;;;;;;3592588;40;20236;-39
2021/07/05 12:26:51;;;;;;;0.45;0.45;;;22.30;99.90;;;;;;3588265;40;20242;-41
2021/07/05 12:29:21;;;;;;;1.52;0.68;;;21.60;99.90;;;;;;3588379;40;20246;-38
2021/07/05 12:31:55;;;;;;;0.70;0.65;;;21.40;99.90;;;;;;3588596;40;20298;-41
2021/07/05 12:35:03;;;;;;;0.50;0.50;;;21.30;99.90;;;;;;3589229;40;20277;-40
2021/07/05 12:37:35;;;;;;;0.50;0.50;;;21.10;99.90;;;;;;3588099;40;20618;-38
2021/07/05 12:40:08;;;;;;;0.82;0.80;;;21.40;99.90;;;;;;3588399;40;20235;-38
2021/07/05 12:42:39;;;;;;;0.70;0.70;;;21.50;99.90;;;;;;3588568;40;20602;-38
2021/07/05 12:45:10;;;;;;;0.75;0.50;;;21.80;99.90;;;;;;3586114;40;20229;-40
2021/07/05 12:47:46;;;;;;;1.13;0.85;;;21.70;99.90;;;;;;3594159;39;20640;-41
2021/07/05 12:50:15;;;;;;;0.68;0.65;;;21.80;99.90;;;;;;3592753;40;20225;-38
2021/07/05 12:52:59;;;;;;;1.58;0.50;;;21.70;99.90;;;;;;3588240;40;20641;-38
2021/07/05 12:55:27;;;;;;;0.98;0.65;;;22.00;99.90;;;;;;3586617;40;20829;-39
2021/07/05 12:57:55;;;;;;;0.50;0.50;;;22.60;99.90;;;;;;3581610;40;20408;-40
2021/07/05 13:00:24;;;;;;;4.60;0.93;;;22.30;99.90;;;;;;3581407;40;20540;-39
2021/07/05 13:02:52;;;;;;;0.70;0.70;;;22.20;99.90;;;;;;3588091;40;20698;-38
2021/07/05 13:05:22;;;;;;;0.50;0.50;;;21.90;99.90;;;;;;3587146;40;20265;-41
2021/07/05 13:07:55;;;;;;;3.03;0.70;;;21.80;99.90;;;;;;3588031;40;20238;-41
2021/07/05 13:10:32;;;;;;;0.70;0.70;;;21.90;99.90;;;;;;3588222;40;20230;-42
2021/07/05 13:13:01;;;;;;;0.50;0.50;;;22.00;99.90;;;;;;3590017;40;20531;-40
2021/07/05 13:15:33;;;;;;;0.70;0.70;;;22.00;99.90;;;;;;3590138;40;20223;-39
2021/07/05 13:18:18;;;;;;;1.77;0.70;;;21.90;99.90;;;;;;3578804;40;20246;-40
2021/07/05 13:20:47;;;;;;;2.25;1.20;;;22.00;99.90;;;;;;3578160;40;20331;-39
2021/07/05 13:23:14;;;;;;;0.60;0.60;;;22.00;99.90;;;;;;3578260;40;20494;-39
2021/07/05 13:25:55;;;;;;;3.28;0.90;;;22.10;99.90;;;;;;3578098;40;20231;-38
2021/07/05 13:28:22;;;;;;;1.55;0.95;;;22.10;99.90;;;;;;3578014;40;20254;-39
2021/07/05 13:30:51;;;;;;;0.63;0.52;;;22.10;99.90;;;;;;3580387;40;20243;-39
2021/07/05 13:33:20;;;;;;;0.80;0.60;;;22.40;99.90;;;;;;3586943;40;20246;-41
2021/07/05 13:35:48;;;;;;;0.60;0.45;;;22.80;99.90;;;;;;3577786;40;20242;-40
2021/07/05 13:38:23;;;;;;;1.98;1.00;;;23.10;99.90;;;;;;3582212;40;20590;-39
2021/07/05 13:40:57;;;;;;;1.02;0.60;;;23.50;99.90;;;;;;3587243;40;20346;-39
2021/07/05 13:43:25;;;;;;;1.08;0.90;;;23.50;99.90;;;;;;3583795;40;20574;-39
2021/07/05 13:45:59;;;;;;;2.78;0.93;;;23.40;99.90;;;;;;3588007;40;20305;-39
2021/07/05 13:48:31;;;;;;;0.80;0.80;;;23.40;99.90;;;;;;3582913;40;20265;-39
2021/07/05 13:51:04;;;;;;;3.45;1.10;;;23.60;99.90;;;;;;3578286;40;20247;-39
2021/07/05 13:53:32;;;;;;;1.00;0.60;;;23.70;99.90;;;;;;3578883;40;20234;-38
2021/07/05 13:56:03;;;;;;;1.15;1.05;;;23.40;99.90;;;;;;3588674;40;20331;-40
2021/07/05 13:58:32;;;;;;;0.80;0.80;;;23.40;99.90;;;;;;3588879;40;20238;-40
2021/07/05 14:01:01;;;;;;;1.67;0.73;;;23.00;99.90;;;;;;3580385;40;20249;-38
2021/07/05 14:03:30;;;;;;;1.58;0.82;;;23.30;99.90;;;;;;3582565;40;20315;-39
2021/07/05 14:05:59;;;;;;;0.60;0.60;;;24.30;99.90;;;;;;3588319;40;20234;-39
2021/07/05 14:08:27;;;;;;;1.88;1.15;;;24.10;99.90;;;;;;3588253;40;20257;-39
2021/07/05 14:10:55;;;;;;;0.75;0.75;;;24.20;99.90;;;;;;3587764;40;20319;-39
2021/07/05 14:13:27;;;;;;;1.20;0.95;;;24.00;99.90;;;;;;3588197;40;20242;-40
2021/07/05 14:15:55;;;;;;;2.15;1.15;;;24.50;99.90;;;;;;3588156;40;20250;-39
2021/07/05 14:18:23;;;;;;;0.75;0.75;;;24.30;99.90;;;;;;3588557;40;20242;-40
2021/07/05 14:20:51;;;;;;;1.67;0.70;;;24.20;99.90;;;;;;3583209;40;20247;-38
2021/07/05 14:23:19;;;;;;;1.30;1.20;;;23.40;99.90;;;;;;3578174;40;20494;-40
2021/07/05 14:25:48;;;;;;;1.92;1.48;;;23.10;99.90;;;;;;3577843;40;20239;-39
2021/07/05 14:28:16;;;;;;;1.00;1.00;;;24.00;99.90;;;;;;3585240;40;20247;-38
2021/07/05 14:30:46;;;;;;;0.90;0.90;;;24.40;99.90;;;;;;3578952;40;20631;-39
2021/07/05 14:33:13;;;;;;;1.35;1.20;;;23.90;99.90;;;;;;3578808;40;20242;-38
2021/07/05 14:35:41;;;;;;;2.40;1.65;;;23.60;99.90;;;;;;3586375;40;20247;-39
2021/07/05 14:38:10;;;;;;;1.38;1.00;;;23.80;99.90;;;;;;3585487;40;20242;-39
2021/07/05 14:40:38;;;;;;;1.30;1.20;;;23.80;99.90;;;;;;3586666;40;20514;-38
2021/07/05 14:43:05;;;;;;;1.90;1.80;;;24.00;99.90;;;;;;3583541;40;20487;-38
2021/07/05 14:45:33;;;;;;;5.32;1.52;;;23.40;99.90;;;;;;3584327;40;20223;-40
2021/07/05 14:48:01;;;;;;;1.55;1.40;;;23.40;99.90;;;;;;3587929;40;20516;-38
2021/07/05 14:50:31;;;;;;;1.33;1.23;;;23.30;99.90;;;;;;3579675;40;20247;-38
2021/07/05 14:52:59;;;;;;;2.17;1.10;;;23.30;99.90;;;;;;3583734;40;20343;-38
2021/07/05 14:55:27;;;;;;;1.50;1.30;;;23.50;99.90;;;;;;3581489;40;20234;-38
2021/07/05 14:57:55;;;;;;;1.48;1.10;;;23.50;99.90;;;;;;3578043;40;20300;-42
2021/07/05 15:00:24;;;;;;;1.08;1.08;;;23.90;99.90;;;;;;3583972;40;20579;-38
2021/07/05 15:02:53;;;;;;;1.95;1.40;;;24.20;99.90;;;;;;3577611;40;20239;-39
2021/07/05 15:05:23;;;;;;;1.63;1.17;;;24.60;99.90;;;;;;3577780;40;20231;-39
2021/07/05 15:07:50;;;;;;;1.60;1.25;;;24.90;99.90;;;;;;3577814;40;20235;-40
2021/07/05 15:10:19;;;;;;;2.05;1.10;;;24.40;99.90;;;;;;3577813;40;20261;-41
2021/07/05 15:12:48;;;;;;;1.38;1.08;;;24.50;99.90;;;;;;3581030;40;20231;-38
2021/07/05 15:15:16;;;;;;;1.05;0.88;;;24.20;99.90;;;;;;3592414;39;20236;-40
2021/07/05 15:17:44;;;;;;;1.02;1.00;;;24.40;99.90;;;;;;3588708;40;20235;-40
2021/07/05 15:20:13;;;;;;;2.33;1.65;;;24.30;99.90;;;;;;3588354;40;20250;-40
2021/07/05 15:22:42;;;;;;;11.35;4.10;;;24.50;99.90;;;;;;3588702;40;20230;-39
2021/07/05 15:25:12;;;;;;;2.85;1.63;;;25.10;99.90;;;;;;3589031;40;20588;-39
2021/07/05 15:27:39;;;;;;;1.90;0.90;;;25.70;99.90;;;;;;3587738;40;20246;-42
2021/07/05 15:30:08;;;;;;;1.55;0.90;;;25.10;99.90;;;;;;3588667;40;20231;-39
2021/07/05 15:32:36;;;;;;;0.77;0.77;;;24.90;99.90;;;;;;3588204;40;20300;-42
2021/07/05 15:35:04;;;;;;;0.82;0.70;;;25.10;99.90;;;;;;3594700;40;20537;-42
2021/07/05 15:37:31;;;;;;;2.22;0.80;;;24.80;99.90;;;;;;3599105;39;20377;-39
2021/07/05 15:40:00;;;;;;;0.73;0.68;;;24.90;99.90;;;;;;3598979;39;20608;-40
2021/07/05 15:42:27;;;;;;;1.65;0.85;;;24.30;99.90;;;;;;3599008;39;20571;-39
2021/07/05 15:44:54;;;;;;;0.82;0.82;;;23.90;99.90;;;;;;3598805;39;20237;-42
2021/07/05 15:47:21;;;;;;;1.00;0.90;;;23.90;99.90;;;;;;3598990;40;20237;-40
2021/07/05 15:49:49;;;;;;;0.70;0.70;;;23.90;99.90;;;;;;3590936;40;20535;-39
2021/07/05 15:52:17;;;;;;;3.10;1.10;;;24.40;99.90;;;;;;3585240;40;20708;-45
2021/07/05 15:54:44;;;;;;;2.17;1.13;;;24.10;99.90;;;;;;3588563;40;20274;-40
2021/07/05 15:57:14;;;;;;;2.28;0.88;;;24.10;99.90;;;;;;3587568;40;20254;-44
2021/07/05 15:59:41;;;;;;;5.88;4.80;;;24.40;99.90;;;;;;3588932;40;20246;-41
2021/07/05 16:02:08;;;;;;;0.90;0.90;;;24.50;99.90;;;;;;3588912;40;20261;-40
2021/07/05 16:04:35;;;;;;;4.43;3.65;;;24.50;99.90;;;;;;3588838;40;20223;-42
2021/07/05 16:07:02;;;;;;;1.52;0.93;;;24.50;99.90;;;;;;3588457;40;20257;-40
2021/07/05 16:09:29;;;;;;;2.83;0.88;;;25.00;99.90;;;;;;3588114;40;20633;-40
2021/07/05 16:11:56;;;;;;;0.73;0.68;;;24.90;99.90;;;;;;3588415;40;20254;-41
2021/07/05 16:14:25;;;;;;;1.45;0.80;;;25.50;99.90;;;;;;3588428;40;20250;-39
2021/07/05 16:16:53;;;;;;;3.13;0.80;;;26.40;99.90;;;;;;3588426;40;20227;-42
2021/07/05 16:19:20;;;;;;;1.05;0.82;;;27.20;99.90;;;;;;3588522;40;20231;-40
2021/07/05 16:21:47;;;;;;;1.17;1.02;;;26.90;99.90;;;;;;3588283;40;20250;-44
2021/07/05 16:24:14;;;;;;;1.35;1.25;;;27.20;99.90;;;;;;3587165;40;20288;-43
2021/07/05 16:26:41;;;;;;;2.38;1.00;;;26.80;99.90;;;;;;3580133;40;20247;-43
2021/07/05 16:29:08;;;;;;;1.30;1.20;;;26.50;99.90;;;;;;3586987;40;20238;-40
2021/07/05 16:31:36;;;;;;;1.60;0.90;;;25.70;99.90;;;;;;3586711;40;20672;-41
2021/07/05 16:34:03;;;;;;;1.33;1.17;;;25.40;99.90;;;;;;3578349;40;20321;-43
2021/07/05 16:36:30;;;;;;;1.92;1.25;;;24.50;99.90;;;;;;3578293;40;20231;-39
2021/07/05 16:38:57;;;;;;;1.23;1.13;;;24.30;99.90;;;;;;3584326;40;20255;-41
2021/07/05 16:41:24;;;;;;;1.75;1.40;;;24.20;99.90;;;;;;3587806;40;20356;-40
2021/07/05 16:43:51;;;;;;;2.20;1.45;;;23.80;99.90;;;;;;3586285;40;20564;-42
2021/07/05 16:46:18;;;;;;;1.55;1.20;;;23.60;99.90;;;;;;3580616;40;20243;-40
2021/07/05 16:48:47;;;;;;;2.13;1.33;;;23.50;99.90;;;;;;3582465;40;20325;-42
2021/07/05 16:51:20;;;;;;;1.50;1.40;;;23.30;99.90;;;;;;3578213;40;20243;-40
2021/07/05 16:53:48;;;;;;;3.63;2.72;;;23.30;99.90;;;;;;3584471;40;20238;-43
2021/07/05 16:56:16;;;;;;;1.00;0.90;;;23.20;99.90;;;;;;3587294;40;20235;-41
2021/07/05 16:58:45;;;;;;;1.27;1.17;;;23.00;99.90;;;;;;3588528;40;20248;-40
2021/07/05 17:01:14;;;;;;;1.50;1.20;;;23.10;99.90;;;;;;3587256;40;20280;-49
2021/07/05 17:03:43;;;;;;;1.35;1.05;;;23.50;99.90;;;;;;3578401;40;20231;-45
2021/07/05 17:06:13;;;;;;;2.08;1.80;;;23.20;99.90;;;;;;3585931;40;20602;-41
2021/07/05 17:08:41;;;;;;;5.05;1.60;;;23.30;99.90;;;;;;3588216;40;20242;-40
2021/07/05 17:11:10;;;;;;;2.03;1.38;;;23.00;99.90;;;;;;3587970;40;20242;-42
2021/07/05 17:13:38;;;;;;;2.00;1.80;;;23.10;99.90;;;;;;3585410;40;20261;-40
2021/07/05 17:16:06;;;;;;;2.28;2.08;;;23.00;99.90;;;;;;3588457;40;20229;-39
2021/07/05 17:18:34;;;;;;;1.73;1.63;;;22.90;99.90;;;;;;3598197;39;20311;-40
2021/07/05 17:21:01;;;;;;;2.03;1.92;;;22.90;99.90;;;;;;3591762;39;20254;-40
2021/07/05 17:23:30;;;;;;;2.83;2.08;;;23.10;99.90;;;;;;3588251;40;20315;-43
2021/07/05 17:25:57;;;;;;;1.80;1.60;;;23.20;99.90;;;;;;3588934;40;20315;-40
2021/07/05 17:28:24;;;;;;;4.35;1.90;;;23.00;99.90;;;;;;3589179;40;20246;-39
2021/07/05 17:30:51;;;;;;;1.95;1.85;;;22.70;99.90;;;;;;3590427;40;20235;-43
2021/07/05 17:33:19;;;;;;;2.28;2.13;;;22.90;99.90;;;;;;3588500;40;20315;-39
2021/07/05 17:35:46;;;;;;;2.75;1.52;;;23.00;99.90;;;;;;3587235;40;20629;-40
2021/07/05 17:38:13;;;;;;;1.70;1.60;;;23.50;99.90;;;;;;3579605;40;20242;-41
2021/07/05 17:40:41;;;;;;;2.00;1.90;;;24.30;99.90;;;;;;3588641;40;20245;-40
2021/07/05 17:43:08;;;;;;;1.85;1.73;;;24.70;99.90;;;;;;3591838;39;20233;-40
2021/07/05 17:45:35;;;;;;;2.00;1.90;;;25.10;99.90;;;;;;3590600;39;20242;-42
2021/07/05 17:48:03;;;;;;;1.95;1.58;;;25.10;99.90;;;;;;3586273;40;20243;-40